sensor_id;sensor_type;location;lat;lon;timestamp;P1;durP1;ratioP1;P2;durP2;ratioP2
65375;SDS011;51976;47.332;9.404;2023-03-01T00:00:45;30.70;;;17.63;;
65375;SDS011;51976;47.332;9.404;2023-03-01T00:03:11;30.02;;;17.52;;
65375;SDS011;51976;47.332;9.404;2023-03-01T00:05:43;28.42;;;17.60;;
65375;SDS011;51976;47.332;9.404;2023-03-01T00:08:11;28.90;;;16.77;;
65375;SDS011;51976;47.332;9.404;2023-03-01T00:10:37;27.48;;;17.52;;
65375;SDS011;51976;47.332;9.404;2023-03-01T00:13:02;27.52;;;17.00;;
65375;SDS011;51976;47.332;9.404;2023-03-01T00:15:30;27.63;;;16.10;;
65375;SDS011;51976;47.332;9.404;2023-03-01T00:17:56;27.00;;;16.10;;
65375;SDS011;51976;47.332;9.404;2023-03-01T00:20:21;30.65;;;17.15;;
65375;SDS011;51976;47.332;9.404;2023-03-01T00:22:47;27.63;;;16.33;;
65375;SDS011;51976;47.332;9.404;2023-03-01T00:25:12;26.88;;;17.27;;
65375;SDS011;51976;47.332;9.404;2023-03-01T00:27:38;30.58;;;18.55;;
65375;SDS011;51976;47.332;9.404;2023-03-01T00:30:03;32.83;;;17.73;;
65375;SDS011;51976;47.332;9.404;2023-03-01T00:32:30;29.40;;;16.95;;
65375;SDS011;51976;47.332;9.404;2023-03-01T00:34:55;30.02;;;17.90;;
65375;SDS011;51976;47.332;9.404;2023-03-01T00:37:21;31.77;;;18.63;;
65375;SDS011;51976;47.332;9.404;2023-03-01T00:39:47;31.70;;;17.65;;
65375;SDS011;51976;47.332;9.404;2023-03-01T00:42:13;27.70;;;16.85;;
65375;SDS011;51976;47.332;9.404;2023-03-01T00:44:38;30.90;;;17.60;;
65375;SDS011;51976;47.332;9.404;2023-03-01T00:47:04;27.30;;;16.85;;
65375;SDS011;51976;47.332;9.404;2023-03-01T00:49:29;30.38;;;16.88;;
65375;SDS011;51976;47.332;9.404;2023-03-01T00:51:54;32.10;;;16.83;;
65375;SDS011;51976;47.332;9.404;2023-03-01T00:54:20;26.63;;;16.30;;
65375;SDS011;51976;47.332;9.404;2023-03-01T00:56:45;29.20;;;16.17;;
65375;SDS011;51976;47.332;9.404;2023-03-01T00:59:11;24.90;;;14.88;;
65375;SDS011;51976;47.332;9.404;2023-03-01T01:01:36;26.95;;;15.77;;
65375;SDS011;51976;47.332;9.404;2023-03-01T01:04:05;30.15;;;16.20;;
65375;SDS011;51976;47.332;9.404;2023-03-01T01:06:36;29.05;;;16.30;;
65375;SDS011;51976;47.332;9.404;2023-03-01T01:09:04;28.83;;;16.42;;
65375;SDS011;51976;47.332;9.404;2023-03-01T01:11:31;29.30;;;17.00;;
65375;SDS011;51976;47.332;9.404;2023-03-01T01:13:57;32.28;;;16.67;;
65375;SDS011;51976;47.332;9.404;2023-03-01T01:16:24;30.02;;;16.10;;
65375;SDS011;51976;47.332;9.404;2023-03-01T01:18:51;29.45;;;16.50;;
65375;SDS011;51976;47.332;9.404;2023-03-01T01:21:18;27.35;;;16.02;;
65375;SDS011;51976;47.332;9.404;2023-03-01T01:23:45;28.48;;;15.75;;
65375;SDS011;51976;47.332;9.404;2023-03-01T01:26:13;27.38;;;15.60;;
65375;SDS011;51976;47.332;9.404;2023-03-01T01:28:40;28.15;;;16.52;;
65375;SDS011;51976;47.332;9.404;2023-03-01T01:31:06;25.80;;;15.77;;
65375;SDS011;51976;47.332;9.404;2023-03-01T01:33:32;29.77;;;15.65;;
65375;SDS011;51976;47.332;9.404;2023-03-01T01:35:58;26.95;;;16.17;;
65375;SDS011;51976;47.332;9.404;2023-03-01T01:38:24;29.00;;;15.57;;
65375;SDS011;51976;47.332;9.404;2023-03-01T01:40:50;27.05;;;15.95;;
65375;SDS011;51976;47.332;9.404;2023-03-01T01:43:24;25.92;;;14.90;;
65375;SDS011;51976;47.332;9.404;2023-03-01T01:45:57;26.15;;;14.80;;
65375;SDS011;51976;47.332;9.404;2023-03-01T01:48:34;25.25;;;15.65;;
65375;SDS011;51976;47.332;9.404;2023-03-01T01:51:10;27.27;;;14.23;;
65375;SDS011;51976;47.332;9.404;2023-03-01T01:53:39;26.73;;;15.50;;
65375;SDS011;51976;47.332;9.404;2023-03-01T01:56:07;23.33;;;13.45;;
65375;SDS011;51976;47.332;9.404;2023-03-01T01:58:36;27.58;;;15.25;;
65375;SDS011;51976;47.332;9.404;2023-03-01T02:01:03;27.10;;;14.77;;
65375;SDS011;51976;47.332;9.404;2023-03-01T02:03:30;27.10;;;14.60;;
65375;SDS011;51976;47.332;9.404;2023-03-01T02:06:25;27.95;;;15.50;;
65375;SDS011;51976;47.332;9.404;2023-03-01T02:09:02;25.50;;;14.52;;
65375;SDS011;51976;47.332;9.404;2023-03-01T02:11:33;27.52;;;14.93;;
65375;SDS011;51976;47.332;9.404;2023-03-01T02:13:59;28.75;;;15.82;;
65375;SDS011;51976;47.332;9.404;2023-03-01T02:16:25;26.60;;;15.05;;
65375;SDS011;51976;47.332;9.404;2023-03-01T02:18:51;27.08;;;15.48;;
65375;SDS011;51976;47.332;9.404;2023-03-01T02:21:30;26.38;;;14.80;;
65375;SDS011;51976;47.332;9.404;2023-03-01T02:24:17;24.60;;;12.85;;
65375;SDS011;51976;47.332;9.404;2023-03-01T02:26:52;26.00;;;13.77;;
65375;SDS011;51976;47.332;9.404;2023-03-01T02:29:21;28.13;;;14.10;;
65375;SDS011;51976;47.332;9.404;2023-03-01T02:31:51;27.00;;;14.88;;
65375;SDS011;51976;47.332;9.404;2023-03-01T02:34:21;26.60;;;14.18;;
65375;SDS011;51976;47.332;9.404;2023-03-01T02:37:06;25.27;;;13.93;;
65375;SDS011;51976;47.332;9.404;2023-03-01T02:39:39;25.25;;;14.30;;
65375;SDS011;51976;47.332;9.404;2023-03-01T02:42:09;25.85;;;13.98;;
65375;SDS011;51976;47.332;9.404;2023-03-01T02:44:39;23.85;;;14.10;;
65375;SDS011;51976;47.332;9.404;2023-03-01T02:47:04;29.58;;;15.50;;
65375;SDS011;51976;47.332;9.404;2023-03-01T02:49:31;24.58;;;13.20;;
65375;SDS011;51976;47.332;9.404;2023-03-01T02:55:08;23.42;;;13.32;;
65375;SDS011;51976;47.332;9.404;2023-03-01T02:57:36;24.17;;;14.23;;
65375;SDS011;51976;47.332;9.404;2023-03-01T03:00:06;25.13;;;14.57;;
65375;SDS011;51976;47.332;9.404;2023-03-01T03:02:33;26.65;;;14.93;;
65375;SDS011;51976;47.332;9.404;2023-03-01T03:05:07;27.00;;;15.40;;
65375;SDS011;51976;47.332;9.404;2023-03-01T03:07:36;23.08;;;13.25;;
65375;SDS011;51976;47.332;9.404;2023-03-01T03:10:03;25.52;;;13.85;;
65375;SDS011;51976;47.332;9.404;2023-03-01T03:12:30;24.80;;;14.15;;
65375;SDS011;51976;47.332;9.404;2023-03-01T03:14:55;26.17;;;15.02;;
65375;SDS011;51976;47.332;9.404;2023-03-01T03:17:21;24.45;;;14.13;;
65375;SDS011;51976;47.332;9.404;2023-03-01T03:19:46;26.25;;;14.98;;
65375;SDS011;51976;47.332;9.404;2023-03-01T03:22:12;24.20;;;14.57;;
65375;SDS011;51976;47.332;9.404;2023-03-01T03:24:38;25.88;;;13.55;;
65375;SDS011;51976;47.332;9.404;2023-03-01T03:27:03;24.17;;;13.98;;
65375;SDS011;51976;47.332;9.404;2023-03-01T03:29:30;26.40;;;13.68;;
65375;SDS011;51976;47.332;9.404;2023-03-01T03:31:55;25.80;;;13.93;;
65375;SDS011;51976;47.332;9.404;2023-03-01T03:34:21;25.55;;;14.82;;
65375;SDS011;51976;47.332;9.404;2023-03-01T03:36:46;24.08;;;13.98;;
65375;SDS011;51976;47.332;9.404;2023-03-01T03:39:11;25.65;;;14.95;;
65375;SDS011;51976;47.332;9.404;2023-03-01T03:41:37;29.52;;;14.50;;
65375;SDS011;51976;47.332;9.404;2023-03-01T03:44:02;24.95;;;13.55;;
65375;SDS011;51976;47.332;9.404;2023-03-01T03:46:28;22.88;;;13.48;;
65375;SDS011;51976;47.332;9.404;2023-03-01T03:48:53;24.98;;;14.02;;
65375;SDS011;51976;47.332;9.404;2023-03-01T03:51:18;27.65;;;14.70;;
65375;SDS011;51976;47.332;9.404;2023-03-01T03:53:44;25.63;;;14.57;;
65375;SDS011;51976;47.332;9.404;2023-03-01T03:56:10;25.75;;;13.77;;
65375;SDS011;51976;47.332;9.404;2023-03-01T03:58:39;27.20;;;14.18;;
65375;SDS011;51976;47.332;9.404;2023-03-01T04:01:05;24.38;;;13.88;;
65375;SDS011;51976;47.332;9.404;2023-03-01T04:03:31;25.50;;;13.60;;
65375;SDS011;51976;47.332;9.404;2023-03-01T04:05:58;25.85;;;13.80;;
65375;SDS011;51976;47.332;9.404;2023-03-01T04:08:24;29.10;;;14.73;;
65375;SDS011;51976;47.332;9.404;2023-03-01T04:10:51;27.23;;;14.50;;
65375;SDS011;51976;47.332;9.404;2023-03-01T04:13:19;27.08;;;15.48;;
65375;SDS011;51976;47.332;9.404;2023-03-01T04:15:46;27.00;;;14.43;;
65375;SDS011;51976;47.332;9.404;2023-03-01T04:18:16;26.92;;;13.60;;
65375;SDS011;51976;47.332;9.404;2023-03-01T04:20:42;29.02;;;15.60;;
65375;SDS011;51976;47.332;9.404;2023-03-01T04:23:11;35.42;;;17.10;;
65375;SDS011;51976;47.332;9.404;2023-03-01T04:25:41;32.60;;;15.73;;
65375;SDS011;51976;47.332;9.404;2023-03-01T04:28:18;26.52;;;14.25;;
65375;SDS011;51976;47.332;9.404;2023-03-01T04:30:51;25.92;;;13.52;;
65375;SDS011;51976;47.332;9.404;2023-03-01T04:33:18;23.60;;;14.23;;
65375;SDS011;51976;47.332;9.404;2023-03-01T04:35:44;22.90;;;12.98;;
65375;SDS011;51976;47.332;9.404;2023-03-01T04:38:09;25.50;;;14.23;;
65375;SDS011;51976;47.332;9.404;2023-03-01T04:40:35;23.25;;;13.00;;
65375;SDS011;51976;47.332;9.404;2023-03-01T04:43:02;24.90;;;13.80;;
65375;SDS011;51976;47.332;9.404;2023-03-01T04:45:28;28.27;;;14.52;;
65375;SDS011;51976;47.332;9.404;2023-03-01T04:47:54;20.52;;;12.50;;
65375;SDS011;51976;47.332;9.404;2023-03-01T04:50:19;27.10;;;13.40;;
65375;SDS011;51976;47.332;9.404;2023-03-01T04:52:46;25.55;;;13.13;;
65375;SDS011;51976;47.332;9.404;2023-03-01T04:55:12;24.95;;;14.18;;
65375;SDS011;51976;47.332;9.404;2023-03-01T04:57:38;28.48;;;14.32;;
65375;SDS011;51976;47.332;9.404;2023-03-01T05:00:05;27.33;;;15.43;;
65375;SDS011;51976;47.332;9.404;2023-03-01T05:02:45;25.30;;;14.25;;
65375;SDS011;51976;47.332;9.404;2023-03-01T05:05:18;27.23;;;14.35;;
65375;SDS011;51976;47.332;9.404;2023-03-01T05:07:44;26.52;;;14.75;;
65375;SDS011;51976;47.332;9.404;2023-03-01T05:10:10;25.02;;;13.10;;
65375;SDS011;51976;47.332;9.404;2023-03-01T05:12:35;26.42;;;14.18;;
65375;SDS011;51976;47.332;9.404;2023-03-01T05:15:02;27.88;;;14.57;;
65375;SDS011;51976;47.332;9.404;2023-03-01T05:17:31;29.73;;;15.45;;
65375;SDS011;51976;47.332;9.404;2023-03-01T05:19:58;25.85;;;14.20;;
65375;SDS011;51976;47.332;9.404;2023-03-01T05:22:24;28.83;;;14.30;;
65375;SDS011;51976;47.332;9.404;2023-03-01T05:24:50;26.52;;;14.10;;
65375;SDS011;51976;47.332;9.404;2023-03-01T05:27:16;26.55;;;14.70;;
65375;SDS011;51976;47.332;9.404;2023-03-01T05:29:41;24.60;;;14.07;;
65375;SDS011;51976;47.332;9.404;2023-03-01T05:32:06;27.35;;;14.57;;
65375;SDS011;51976;47.332;9.404;2023-03-01T05:34:34;28.45;;;13.90;;
65375;SDS011;51976;47.332;9.404;2023-03-01T05:37:01;29.98;;;15.18;;
65375;SDS011;51976;47.332;9.404;2023-03-01T05:39:27;27.98;;;15.45;;
65375;SDS011;51976;47.332;9.404;2023-03-01T05:41:57;28.25;;;14.85;;
65375;SDS011;51976;47.332;9.404;2023-03-01T05:44:24;29.33;;;14.82;;
65375;SDS011;51976;47.332;9.404;2023-03-01T05:46:50;25.45;;;14.02;;
65375;SDS011;51976;47.332;9.404;2023-03-01T05:49:16;28.33;;;14.45;;
65375;SDS011;51976;47.332;9.404;2023-03-01T05:51:42;30.55;;;15.77;;
65375;SDS011;51976;47.332;9.404;2023-03-01T05:54:11;25.80;;;13.32;;
65375;SDS011;51976;47.332;9.404;2023-03-01T05:56:37;26.48;;;14.25;;
65375;SDS011;51976;47.332;9.404;2023-03-01T05:59:03;28.85;;;14.75;;
65375;SDS011;51976;47.332;9.404;2023-03-01T06:01:30;26.88;;;14.07;;
65375;SDS011;51976;47.332;9.404;2023-03-01T06:03:56;28.75;;;14.55;;
65375;SDS011;51976;47.332;9.404;2023-03-01T06:06:21;26.98;;;15.18;;
65375;SDS011;51976;47.332;9.404;2023-03-01T06:08:47;24.92;;;14.00;;
65375;SDS011;51976;47.332;9.404;2023-03-01T06:11:12;25.30;;;13.65;;
65375;SDS011;51976;47.332;9.404;2023-03-01T06:13:38;26.60;;;14.15;;
65375;SDS011;51976;47.332;9.404;2023-03-01T06:16:04;27.80;;;14.30;;
65375;SDS011;51976;47.332;9.404;2023-03-01T06:18:31;26.98;;;13.88;;
65375;SDS011;51976;47.332;9.404;2023-03-01T06:20:56;28.63;;;14.27;;
65375;SDS011;51976;47.332;9.404;2023-03-01T06:23:22;25.92;;;13.70;;
65375;SDS011;51976;47.332;9.404;2023-03-01T06:25:48;27.50;;;14.35;;
65375;SDS011;51976;47.332;9.404;2023-03-01T06:28:14;29.08;;;14.20;;
65375;SDS011;51976;47.332;9.404;2023-03-01T06:30:40;29.15;;;14.57;;
65375;SDS011;51976;47.332;9.404;2023-03-01T06:33:05;26.52;;;13.23;;
65375;SDS011;51976;47.332;9.404;2023-03-01T06:35:30;26.35;;;14.43;;
65375;SDS011;51976;47.332;9.404;2023-03-01T06:37:57;29.83;;;14.30;;
65375;SDS011;51976;47.332;9.404;2023-03-01T06:40:24;27.33;;;14.90;;
65375;SDS011;51976;47.332;9.404;2023-03-01T06:42:50;26.83;;;14.85;;
65375;SDS011;51976;47.332;9.404;2023-03-01T06:45:16;29.20;;;14.40;;
65375;SDS011;51976;47.332;9.404;2023-03-01T06:47:45;27.58;;;13.63;;
65375;SDS011;51976;47.332;9.404;2023-03-01T06:50:11;31.92;;;15.55;;
65375;SDS011;51976;47.332;9.404;2023-03-01T06:52:37;26.15;;;14.30;;
65375;SDS011;51976;47.332;9.404;2023-03-01T06:55:03;26.52;;;14.27;;
65375;SDS011;51976;47.332;9.404;2023-03-01T06:57:29;29.13;;;13.95;;
65375;SDS011;51976;47.332;9.404;2023-03-01T06:59:54;30.45;;;14.75;;
65375;SDS011;51976;47.332;9.404;2023-03-01T07:02:20;23.42;;;13.90;;
65375;SDS011;51976;47.332;9.404;2023-03-01T07:04:45;24.67;;;13.38;;
65375;SDS011;51976;47.332;9.404;2023-03-01T07:07:11;22.45;;;13.75;;
65375;SDS011;51976;47.332;9.404;2023-03-01T07:09:36;25.23;;;14.93;;
65375;SDS011;51976;47.332;9.404;2023-03-01T07:12:02;26.90;;;13.30;;
65375;SDS011;51976;47.332;9.404;2023-03-01T07:14:27;22.48;;;13.55;;
65375;SDS011;51976;47.332;9.404;2023-03-01T07:16:53;25.02;;;13.35;;
65375;SDS011;51976;47.332;9.404;2023-03-01T07:19:19;26.92;;;15.07;;
65375;SDS011;51976;47.332;9.404;2023-03-01T07:21:45;29.48;;;16.13;;
65375;SDS011;51976;47.332;9.404;2023-03-01T07:24:11;22.23;;;13.07;;
65375;SDS011;51976;47.332;9.404;2023-03-01T07:26:36;22.90;;;13.13;;
65375;SDS011;51976;47.332;9.404;2023-03-01T07:29:03;24.60;;;12.45;;
65375;SDS011;51976;47.332;9.404;2023-03-01T07:31:30;27.95;;;13.50;;
65375;SDS011;51976;47.332;9.404;2023-03-01T07:33:55;21.08;;;11.82;;
65375;SDS011;51976;47.332;9.404;2023-03-01T07:36:21;24.33;;;12.88;;
65375;SDS011;51976;47.332;9.404;2023-03-01T07:38:49;21.15;;;11.65;;
65375;SDS011;51976;47.332;9.404;2023-03-01T07:41:15;24.25;;;12.88;;
65375;SDS011;51976;47.332;9.404;2023-03-01T07:43:40;24.85;;;13.73;;
65375;SDS011;51976;47.332;9.404;2023-03-01T07:46:06;22.27;;;12.55;;
65375;SDS011;51976;47.332;9.404;2023-03-01T07:48:32;23.17;;;12.00;;
65375;SDS011;51976;47.332;9.404;2023-03-01T07:50:58;21.15;;;12.52;;
65375;SDS011;51976;47.332;9.404;2023-03-01T07:53:26;22.77;;;13.55;;
65375;SDS011;51976;47.332;9.404;2023-03-01T07:56:01;25.13;;;13.23;;
65375;SDS011;51976;47.332;9.404;2023-03-01T07:58:33;25.55;;;13.35;;
65375;SDS011;51976;47.332;9.404;2023-03-01T08:01:03;19.55;;;12.00;;
65375;SDS011;51976;47.332;9.404;2023-03-01T08:03:30;22.40;;;13.52;;
65375;SDS011;51976;47.332;9.404;2023-03-01T08:05:55;24.13;;;12.70;;
65375;SDS011;51976;47.332;9.404;2023-03-01T08:08:23;21.98;;;12.60;;
65375;SDS011;51976;47.332;9.404;2023-03-01T08:10:49;21.98;;;13.07;;
65375;SDS011;51976;47.332;9.404;2023-03-01T08:13:15;27.85;;;12.75;;
65375;SDS011;51976;47.332;9.404;2023-03-01T08:15:40;22.95;;;13.40;;
65375;SDS011;51976;47.332;9.404;2023-03-01T08:18:08;22.45;;;12.88;;
65375;SDS011;51976;47.332;9.404;2023-03-01T08:20:33;25.35;;;13.18;;
65375;SDS011;51976;47.332;9.404;2023-03-01T08:22:59;22.10;;;12.45;;
65375;SDS011;51976;47.332;9.404;2023-03-01T08:25:24;21.17;;;12.52;;
65375;SDS011;51976;47.332;9.404;2023-03-01T08:27:49;23.10;;;13.35;;
65375;SDS011;51976;47.332;9.404;2023-03-01T08:30:15;20.42;;;12.27;;
65375;SDS011;51976;47.332;9.404;2023-03-01T08:32:40;23.90;;;12.95;;
65375;SDS011;51976;47.332;9.404;2023-03-01T08:35:06;20.23;;;11.77;;
65375;SDS011;51976;47.332;9.404;2023-03-01T08:37:31;23.15;;;12.98;;
65375;SDS011;51976;47.332;9.404;2023-03-01T08:39:57;20.98;;;12.65;;
65375;SDS011;51976;47.332;9.404;2023-03-01T08:42:23;21.15;;;12.35;;
65375;SDS011;51976;47.332;9.404;2023-03-01T08:44:48;22.90;;;13.00;;
65375;SDS011;51976;47.332;9.404;2023-03-01T08:47:14;20.38;;;12.80;;
65375;SDS011;51976;47.332;9.404;2023-03-01T08:49:39;30.75;;;16.50;;
65375;SDS011;51976;47.332;9.404;2023-03-01T08:52:04;25.73;;;14.43;;
65375;SDS011;51976;47.332;9.404;2023-03-01T08:54:30;24.85;;;13.90;;
65375;SDS011;51976;47.332;9.404;2023-03-01T08:56:55;24.98;;;14.13;;
65375;SDS011;51976;47.332;9.404;2023-03-01T08:59:21;22.38;;;13.05;;
65375;SDS011;51976;47.332;9.404;2023-03-01T09:01:46;27.00;;;14.20;;
65375;SDS011;51976;47.332;9.404;2023-03-01T09:04:12;25.92;;;14.50;;
65375;SDS011;51976;47.332;9.404;2023-03-01T09:06:39;25.58;;;14.05;;
65375;SDS011;51976;47.332;9.404;2023-03-01T09:09:05;24.80;;;14.13;;
65375;SDS011;51976;47.332;9.404;2023-03-01T09:11:31;29.98;;;14.70;;
65375;SDS011;51976;47.332;9.404;2023-03-01T09:13:57;23.88;;;13.63;;
65375;SDS011;51976;47.332;9.404;2023-03-01T09:16:23;22.08;;;12.55;;
65375;SDS011;51976;47.332;9.404;2023-03-01T09:18:49;27.60;;;14.30;;
65375;SDS011;51976;47.332;9.404;2023-03-01T09:21:16;24.55;;;13.48;;
65375;SDS011;51976;47.332;9.404;2023-03-01T09:23:43;25.52;;;13.80;;
65375;SDS011;51976;47.332;9.404;2023-03-01T09:26:14;24.50;;;12.65;;
65375;SDS011;51976;47.332;9.404;2023-03-01T09:28:44;21.88;;;12.38;;
65375;SDS011;51976;47.332;9.404;2023-03-01T09:31:10;25.85;;;13.65;;
65375;SDS011;51976;47.332;9.404;2023-03-01T09:33:39;24.98;;;13.02;;
65375;SDS011;51976;47.332;9.404;2023-03-01T09:36:07;25.17;;;13.23;;
65375;SDS011;51976;47.332;9.404;2023-03-01T09:38:36;22.05;;;11.82;;
65375;SDS011;51976;47.332;9.404;2023-03-01T09:41:01;24.02;;;13.48;;
65375;SDS011;51976;47.332;9.404;2023-03-01T09:43:46;27.45;;;12.82;;
65375;SDS011;51976;47.332;9.404;2023-03-01T09:46:19;27.42;;;13.10;;
65375;SDS011;51976;47.332;9.404;2023-03-01T09:48:52;23.65;;;12.75;;
65375;SDS011;51976;47.332;9.404;2023-03-01T09:51:29;25.15;;;12.77;;
65375;SDS011;51976;47.332;9.404;2023-03-01T09:53:57;25.10;;;12.93;;
65375;SDS011;51976;47.332;9.404;2023-03-01T09:56:30;29.98;;;14.35;;
65375;SDS011;51976;47.332;9.404;2023-03-01T09:59:07;21.67;;;12.13;;
65375;SDS011;51976;47.332;9.404;2023-03-01T10:02:03;23.75;;;13.25;;
65375;SDS011;51976;47.332;9.404;2023-03-01T10:04:50;23.42;;;13.35;;
65375;SDS011;51976;47.332;9.404;2023-03-01T10:07:32;26.10;;;13.82;;
65375;SDS011;51976;47.332;9.404;2023-03-01T10:10:21;24.65;;;13.55;;
65375;SDS011;51976;47.332;9.404;2023-03-01T10:12:54;30.08;;;14.25;;
65375;SDS011;51976;47.332;9.404;2023-03-01T10:15:34;27.42;;;15.02;;
65375;SDS011;51976;47.332;9.404;2023-03-01T10:18:04;26.73;;;13.75;;
65375;SDS011;51976;47.332;9.404;2023-03-01T10:20:42;19.58;;;12.45;;
65375;SDS011;51976;47.332;9.404;2023-03-01T10:23:13;25.05;;;14.10;;
65375;SDS011;51976;47.332;9.404;2023-03-01T10:25:51;23.83;;;13.20;;
65375;SDS011;51976;47.332;9.404;2023-03-01T10:29:06;23.75;;;12.98;;
65375;SDS011;51976;47.332;9.404;2023-03-01T10:31:23;25.42;;;13.25;;
65375;SDS011;51976;47.332;9.404;2023-03-01T10:34:01;23.10;;;12.95;;
65375;SDS011;51976;47.332;9.404;2023-03-01T10:36:28;21.85;;;12.50;;
65375;SDS011;51976;47.332;9.404;2023-03-01T10:38:58;24.83;;;12.70;;
65375;SDS011;51976;47.332;9.404;2023-03-01T10:41:25;20.90;;;11.23;;
65375;SDS011;51976;47.332;9.404;2023-03-01T10:43:52;19.85;;;11.55;;
65375;SDS011;51976;47.332;9.404;2023-03-01T10:46:23;17.48;;;11.40;;
65375;SDS011;51976;47.332;9.404;2023-03-01T10:49:07;20.40;;;12.38;;
65375;SDS011;51976;47.332;9.404;2023-03-01T10:51:39;19.88;;;11.65;;
65375;SDS011;51976;47.332;9.404;2023-03-01T10:54:15;21.50;;;10.85;;
65375;SDS011;51976;47.332;9.404;2023-03-01T10:56:49;20.23;;;11.02;;
65375;SDS011;51976;47.332;9.404;2023-03-01T10:59:36;22.60;;;11.35;;
65375;SDS011;51976;47.332;9.404;2023-03-01T11:04:58;19.90;;;11.07;;
65375;SDS011;51976;47.332;9.404;2023-03-01T11:07:25;22.45;;;10.95;;
65375;SDS011;51976;47.332;9.404;2023-03-01T11:09:51;19.67;;;10.80;;
65375;SDS011;51976;47.332;9.404;2023-03-01T11:12:16;20.45;;;12.13;;
65375;SDS011;51976;47.332;9.404;2023-03-01T11:14:51;23.15;;;11.30;;
65375;SDS011;51976;47.332;9.404;2023-03-01T11:17:21;21.17;;;12.13;;
65375;SDS011;51976;47.332;9.404;2023-03-01T11:20:01;17.45;;;11.02;;
65375;SDS011;51976;47.332;9.404;2023-03-01T11:22:31;18.23;;;11.77;;
65375;SDS011;51976;47.332;9.404;2023-03-01T11:24:59;18.08;;;11.63;;
65375;SDS011;51976;47.332;9.404;2023-03-01T11:27:28;21.30;;;12.35;;
65375;SDS011;51976;47.332;9.404;2023-03-01T11:30:03;19.88;;;11.68;;
65375;SDS011;51976;47.332;9.404;2023-03-01T11:32:36;16.70;;;10.40;;
65375;SDS011;51976;47.332;9.404;2023-03-01T11:35:18;18.48;;;10.45;;
65375;SDS011;51976;47.332;9.404;2023-03-01T11:38:27;22.08;;;11.65;;
65375;SDS011;51976;47.332;9.404;2023-03-01T11:46:40;27.20;;;13.88;;
65375;SDS011;51976;47.332;9.404;2023-03-01T11:49:39;25.55;;;13.95;;
65375;SDS011;51976;47.332;9.404;2023-03-01T11:52:57;25.10;;;12.60;;
65375;SDS011;51976;47.332;9.404;2023-03-01T11:55:19;29.25;;;15.98;;
65375;SDS011;51976;47.332;9.404;2023-03-01T11:58:06;19.95;;;12.70;;
65375;SDS011;51976;47.332;9.404;2023-03-01T12:00:58;20.63;;;12.57;;
65375;SDS011;51976;47.332;9.404;2023-03-01T12:03:54;18.08;;;11.18;;
65375;SDS011;51976;47.332;9.404;2023-03-01T12:06:41;19.25;;;11.50;;
65375;SDS011;51976;47.332;9.404;2023-03-01T12:09:31;23.13;;;13.77;;
65375;SDS011;51976;47.332;9.404;2023-03-01T12:12:11;27.08;;;14.75;;
65375;SDS011;51976;47.332;9.404;2023-03-01T12:14:55;24.35;;;13.52;;
65375;SDS011;51976;47.332;9.404;2023-03-01T12:17:40;26.88;;;15.38;;
65375;SDS011;51976;47.332;9.404;2023-03-01T12:20:25;22.60;;;13.52;;
65375;SDS011;51976;47.332;9.404;2023-03-01T12:23:11;23.70;;;12.80;;
65375;SDS011;51976;47.332;9.404;2023-03-01T12:25:58;23.52;;;12.68;;
65375;SDS011;51976;47.332;9.404;2023-03-01T12:32:00;26.15;;;13.68;;
65375;SDS011;51976;47.332;9.404;2023-03-01T12:37:42;27.17;;;15.65;;
65375;SDS011;51976;47.332;9.404;2023-03-01T12:40:23;21.02;;;12.25;;
65375;SDS011;51976;47.332;9.404;2023-03-01T12:42:59;20.63;;;11.05;;
65375;SDS011;51976;47.332;9.404;2023-03-01T12:45:55;18.83;;;10.55;;
65375;SDS011;51976;47.332;9.404;2023-03-01T12:48:39;18.63;;;10.95;;
65375;SDS011;51976;47.332;9.404;2023-03-01T12:51:19;18.90;;;11.60;;
65375;SDS011;51976;47.332;9.404;2023-03-01T12:53:50;20.02;;;10.00;;
65375;SDS011;51976;47.332;9.404;2023-03-01T12:56:19;18.45;;;10.80;;
65375;SDS011;51976;47.332;9.404;2023-03-01T12:59:03;17.27;;;10.00;;
65375;SDS011;51976;47.332;9.404;2023-03-01T13:01:52;17.10;;;10.93;;
65375;SDS011;51976;47.332;9.404;2023-03-01T13:05:00;18.52;;;11.07;;
65375;SDS011;51976;47.332;9.404;2023-03-01T13:07:41;16.52;;;11.05;;
65375;SDS011;51976;47.332;9.404;2023-03-01T13:10:30;16.75;;;10.48;;
65375;SDS011;51976;47.332;9.404;2023-03-01T13:13:11;19.20;;;10.88;;
65375;SDS011;51976;47.332;9.404;2023-03-01T13:15:39;18.20;;;10.98;;
65375;SDS011;51976;47.332;9.404;2023-03-01T13:20:55;19.65;;;11.32;;
65375;SDS011;51976;47.332;9.404;2023-03-01T13:23:24;18.73;;;10.23;;
65375;SDS011;51976;47.332;9.404;2023-03-01T13:26:05;21.17;;;10.95;;
65375;SDS011;51976;47.332;9.404;2023-03-01T13:28:48;20.17;;;11.57;;
65375;SDS011;51976;47.332;9.404;2023-03-01T13:34:41;19.40;;;10.68;;
65375;SDS011;51976;47.332;9.404;2023-03-01T13:37:08;18.52;;;11.75;;
65375;SDS011;51976;47.332;9.404;2023-03-01T13:39:45;18.23;;;11.32;;
65375;SDS011;51976;47.332;9.404;2023-03-01T13:42:32;19.52;;;11.45;;
65375;SDS011;51976;47.332;9.404;2023-03-01T13:45:02;18.55;;;11.30;;
65375;SDS011;51976;47.332;9.404;2023-03-01T13:47:29;19.67;;;10.77;;
65375;SDS011;51976;47.332;9.404;2023-03-01T13:49:58;19.17;;;10.88;;
65375;SDS011;51976;47.332;9.404;2023-03-01T13:52:43;17.98;;;10.70;;
65375;SDS011;51976;47.332;9.404;2023-03-01T13:55:17;19.35;;;11.50;;
65375;SDS011;51976;47.332;9.404;2023-03-01T13:57:56;17.58;;;10.65;;
65375;SDS011;51976;47.332;9.404;2023-03-01T14:00:28;22.73;;;11.67;;
65375;SDS011;51976;47.332;9.404;2023-03-01T14:03:00;21.05;;;10.38;;
65375;SDS011;51976;47.332;9.404;2023-03-01T14:05:29;18.42;;;11.35;;
65375;SDS011;51976;47.332;9.404;2023-03-01T14:07:55;18.10;;;11.05;;
65375;SDS011;51976;47.332;9.404;2023-03-01T14:10:20;16.90;;;10.77;;
65375;SDS011;51976;47.332;9.404;2023-03-01T14:12:52;19.80;;;11.25;;
65375;SDS011;51976;47.332;9.404;2023-03-01T14:15:32;16.83;;;10.80;;
65375;SDS011;51976;47.332;9.404;2023-03-01T14:18:04;20.70;;;11.88;;
65375;SDS011;51976;47.332;9.404;2023-03-01T14:20:44;17.15;;;11.02;;
65375;SDS011;51976;47.332;9.404;2023-03-01T14:23:17;18.52;;;11.43;;
65375;SDS011;51976;47.332;9.404;2023-03-01T14:25:48;18.27;;;11.15;;
65375;SDS011;51976;47.332;9.404;2023-03-01T14:28:17;24.50;;;11.45;;
65375;SDS011;51976;47.332;9.404;2023-03-01T14:30:45;19.02;;;10.38;;
65375;SDS011;51976;47.332;9.404;2023-03-01T14:33:22;17.35;;;10.85;;
65375;SDS011;51976;47.332;9.404;2023-03-01T14:35:59;18.50;;;11.75;;
65375;SDS011;51976;47.332;9.404;2023-03-01T14:38:35;18.33;;;10.95;;
65375;SDS011;51976;47.332;9.404;2023-03-01T14:41:04;19.50;;;11.82;;
65375;SDS011;51976;47.332;9.404;2023-03-01T14:43:35;29.70;;;11.30;;
65375;SDS011;51976;47.332;9.404;2023-03-01T14:46:03;19.30;;;11.52;;
65375;SDS011;51976;47.332;9.404;2023-03-01T14:48:29;21.58;;;11.20;;
65375;SDS011;51976;47.332;9.404;2023-03-01T14:50:56;19.15;;;12.15;;
65375;SDS011;51976;47.332;9.404;2023-03-01T14:53:23;21.48;;;12.10;;
65375;SDS011;51976;47.332;9.404;2023-03-01T14:55:52;18.50;;;11.45;;
65375;SDS011;51976;47.332;9.404;2023-03-01T14:58:21;19.95;;;11.63;;
65375;SDS011;51976;47.332;9.404;2023-03-01T15:00:52;25.52;;;12.20;;
65375;SDS011;51976;47.332;9.404;2023-03-01T15:03:23;18.33;;;12.02;;